Terminal Aerodrome Forecast
Issued by NWS

Home | Current Version | Previous Version | Text Only | Print | Product List | Glossary On
Versions: 1 2 3 4 5 6 7 8 9 10 11 12 13 14 15 16
000
FTAK31 PAJN 301100
TAFAYA
TAF
PAYA 301130Z 3012/3112 09006KT 6SM -SHRA BR SCT010 BKN025 OVC040
     FM302000 08005KT P6SM -SHRA SCT030 OVC045
     FM310300 VRB04KT P6SM VCSH SCT045 BKN070
      AMD LTD TO CLD VIS AND WIND 3101/3110=

USA.gov is the U.S. government's official web portal to all federal, state and local government web resources and services.